Main page
METAR-TAF:

METAR-TAF

Airports :

Hermosillo International Airport

Hermosillo, Mexico

latitude: 29-04N, longitude: 110-57W, elevation: 211 m

Current weather observation

The report was made 32 minutes ago, at 13:40 UTC
Calm wind
Temperature 17°C
Humidity 63%
Pressure 1016 hPa
Visibility: 16.1 km
Broken clouds at a height of 10000 ft

METAR: MMHO 221340Z 00000KT 10SM BKN100 17/10 A2999 RMK 8/030 ISOL CI HZY

Time: 07:12 (14:12 UTC)

Forecast

The report was made 9 hours and 16 minutes ago, at 04:56 UTC
Forecast valid from 22 at 06 UTC to 23 at 06 UTC
Wind kt from the North
Visibility: 10 km
Scattered clouds at a height of 10000 ft
Overcast at a height of 20000 ft
From 22 at 1800 UTC
Wind 8 kt from the West
Visibility: 10 km
Broken clouds at a height of 10000 ft
Broken clouds at a height of 20000 ft
Becoming
from 23 at 03 UTC to 23 at 05 UTC
Wind 6 kt from the West/Northwest

TAF: MMHO 220456Z 2206/2306 00000KT P6SM SCT100 OVC200 FM221800 28008KT P6SM BKN100 BKN200 BECMG 2303/2305 30006KT

Weather observations and forecasts of more than 4000 airports (METAR and TAF reports).

The available stations are represented by yellow and red dots on the map.

Hover mouse over dot to see the name of the station.

Then click to see weather observations and forecasts.

To change the map : click on the green buttons with a black cross to zoom in, on the green button with a dash to zoom out, or on the green arrows for adjacent maps.


METAR-TAF: